Friday, October 31, 2014
15:06 UTC
  |  Log In   |  Register Free
Airport Search:

De Kalb County Airport
(KGWB)

De Kalb County Airport Diagram
No Airport Diagram Available

FAA data valid effective September 18, 2014 - November 13, 2014 (unless otherwise noted).

 
 
 
 
 
 
 
 
 
 
 
 
 
 

Current Aviation Weather for De Kalb County Airport (KGWB)

The most recent METAR observation for KGWB was updated at: 1413
METAR Summary (Translated METAR)
KGWB
311355Z AUTO 31007KT 10SM DZ BKN012 BKN018 OVC028 05/02 A2995 RMK AO2 P0001
KANQ
311355Z AUTO 32009KT 04/03 A2994 RMK
(20 nm NW from KGWB)
KFWA
311354Z 32013KT 8SM -RA SCT010 BKN014 OVC042 05/03 A2996 RMK AO2 SLP149 P0004 T00500028
(20.6 nm SW from KGWB)
TAF Summary (Translated TAF)
KFWA
(20.6 nm SW from KGWB)
311257Z 3113/0112 29010G18KT 5SM -RA BR SCT009 BKN015 FM311400 31014G24KT 5SM -RA BR OVC020 FM312000 34020G33KT 5SM -RASN OVC015 FM010400 35016G25KT P6SM BKN025
  Airport Weather Conditions for KGWB

 Current Weather at GWB
41° F
Drizzle
Northwest winds at 8.1 mph
GWB NOAA Radar

Pressure: 29.95 in
Humidity: 81%
Wind: Northwest at 8.1 MPH (7 KT)
Dew Point: 35.6°F
Visibility: 10.00 mi


Airport Weather Forecast for KGWB

Translated METAR and TAF for KGWB
Translated METAR for KGWB (1501 UTC 31 October 2014)
found at http://aviationweather.gov/adds/metars/
 
METAR text: KGWB 311455Z AUTO 32007KT 10SM -RA BKN014 OVC020 04/02 A2995 RMK AO2
Conditions at: KGWB (AUBURN DEKALB C , IN, US) observed 1455 UTC 31 October 2014
Temperature: 4.0°C (39°F)
Dewpoint: 2.0°C (36°F) [RH = 87%]
Pressure (altimeter): 29.95 inches Hg (1014.3 mb)
Winds: from the NW (320 degrees) at 8 MPH (7 knots; 3.6 m/s)
Visibility: 10 or more miles (16+ km)
Ceiling: 1400 feet AGL
Clouds: broken clouds at 1400 feet AGL
overcast cloud deck at 2000 feet AGL
Weather: -RA  (light rain)
Translated TAF for KGWB

There is no translated TAF available for this airport

Find All Airport Services Find A Hotel Find A Rental Car Find A Golf Course Find A Restaurant $100 Hamburger



FBO's on the Field
FBO Company Facility Photos Services Transportation Aviation Fuel Prices: Prices include tax
Catering Weather Repair Courtesy Rental Type 100LL JetA JetA+ MOGAS 8087
 
Century Aviation

This FBO has not yet been rated
FS:Shell
Last Updated: Oct-02
Login to update fuel prices
SS:
Contact Century AviationMore FBO Information
 
Add another FBO Facility Photos Catering Weather Repair Courtesy Rental Type 100LL JetA JetA+ MOGAS 8087
Services Transportation Aviation Fuel Prices: Prices include tax


model-print
model-print
model-print
model-print